createdAt,value
2023-02-11T00:00:53.637Z,80.96
2023-02-11T00:01:53.697Z,80.96
2023-02-11T00:02:53.624Z,80.82
2023-02-11T00:03:53.629Z,80.82
2023-02-11T00:04:53.624Z,80.82
2023-02-11T00:05:53.613Z,80.82
2023-02-11T00:06:53.617Z,80.82
2023-02-11T00:07:53.590Z,80.96
2023-02-11T00:08:53.803Z,80.96
2023-02-11T00:09:53.550Z,81.07
2023-02-11T00:10:53.571Z,80.96
2023-02-11T00:11:53.538Z,80.96
2023-02-11T00:12:53.550Z,80.96
2023-02-11T00:13:53.543Z,80.96
2023-02-11T00:14:53.559Z,81.07
2023-02-11T00:15:53.504Z,80.96
2023-02-11T00:16:53.502Z,80.86
2023-02-11T00:17:53.485Z,80.82
2023-02-11T00:18:53.465Z,80.86
2023-02-11T00:19:53.460Z,80.96
2023-02-11T00:20:53.465Z,80.86
2023-02-11T00:21:53.434Z,80.93
2023-02-11T00:22:53.431Z,80.93
2023-02-11T00:23:53.413Z,80.82
2023-02-11T00:24:53.402Z,80.93
2023-02-11T00:25:53.510Z,80.96
2023-02-11T00:26:53.375Z,80.96
2023-02-11T00:27:53.371Z,81.07
2023-02-11T00:28:53.387Z,81.07
2023-02-11T00:29:53.346Z,80.86
2023-02-11T00:30:53.417Z,80.76
2023-02-11T00:31:53.475Z,80.76
2023-02-11T00:32:53.317Z,80.72
2023-02-11T00:33:53.322Z,80.72
2023-02-11T00:34:53.311Z,80.82
2023-02-11T00:35:53.346Z,80.82
2023-02-11T00:36:53.274Z,80.72
2023-02-11T00:37:53.268Z,80.72
2023-02-11T00:38:53.252Z,80.72
2023-02-11T00:39:53.268Z,80.62
2023-02-11T00:40:53.226Z,80.62
2023-02-11T00:41:53.229Z,80.51
2023-02-11T00:42:53.217Z,80.30
2023-02-11T00:43:53.249Z,80.20
2023-02-11T00:44:53.214Z,80.20
2023-02-11T00:45:53.533Z,80.30
2023-02-11T00:46:53.171Z,80.20
2023-02-11T00:47:53.164Z,80.20
2023-02-11T00:48:53.149Z,80.30
2023-02-11T00:49:53.166Z,80.20
2023-02-11T00:50:53.131Z,80.20
2023-02-11T00:51:53.128Z,80.20
2023-02-11T00:52:53.117Z,80.20
2023-02-11T00:53:53.108Z,80.05
2023-02-11T00:54:53.116Z,80.09
2023-02-11T00:55:53.084Z,80.05
2023-02-11T00:56:53.076Z,80.05
2023-02-11T00:57:53.063Z,80.09
2023-02-11T00:58:53.056Z,80.05
2023-02-11T00:59:53.086Z,80.05
2023-02-11T01:00:53.023Z,80.05
2023-02-11T01:01:53.027Z,79.95
2023-02-11T01:02:53.009Z,79.85
2023-02-11T01:03:53.005Z,79.85
2023-02-11T01:04:53.088Z,79.74
2023-02-11T01:05:53.090Z,79.74
2023-02-11T01:06:52.972Z,79.74
2023-02-11T01:07:52.967Z,79.74
2023-02-11T01:08:52.953Z,79.53
2023-02-11T01:09:52.953Z,79.43
2023-02-11T01:10:52.933Z,79.33
2023-02-11T01:11:52.952Z,79.11
2023-02-11T01:12:52.920Z,79.11
2023-02-11T01:13:52.909Z,79.11
2023-02-11T01:14:52.890Z,79.08
2023-02-11T01:15:53.268Z,79.08
2023-02-11T01:16:52.897Z,79.08
2023-02-11T01:17:52.872Z,79.08
2023-02-11T01:18:52.850Z,79.08
2023-02-11T01:19:52.848Z,78.97
2023-02-11T01:20:52.840Z,78.97
2023-02-11T01:21:52.826Z,78.87
2023-02-11T01:22:52.837Z,78.77
2023-02-11T01:23:52.809Z,78.87
2023-02-11T01:24:52.794Z,78.97
2023-02-11T01:25:53.109Z,78.97
2023-02-11T01:26:52.777Z,78.87
2023-02-11T01:27:52.769Z,78.87
2023-02-11T01:28:52.782Z,78.77
2023-02-11T01:29:52.747Z,78.77
2023-02-11T01:30:52.775Z,78.66
2023-02-11T01:31:52.759Z,78.45
2023-02-11T01:32:52.712Z,78.45
2023-02-11T01:33:52.709Z,78.45
2023-02-11T01:34:52.724Z,78.56
2023-02-11T01:35:53.100Z,78.66
2023-02-11T01:36:52.677Z,78.66
2023-02-11T01:37:52.665Z,78.77
2023-02-11T01:38:52.660Z,78.87
2023-02-11T01:39:52.650Z,78.97
2023-02-11T01:40:52.657Z,79.19
2023-02-11T01:41:52.623Z,79.19
2023-02-11T01:42:52.614Z,79.19
2023-02-11T01:43:52.601Z,79.29
2023-02-11T01:44:52.602Z,79.29
2023-02-11T01:45:52.923Z,79.29
2023-02-11T01:46:52.699Z,79.19
2023-02-11T01:47:52.562Z,79.08
2023-02-11T01:48:52.626Z,79.19
2023-02-11T01:49:52.543Z,79.08
2023-02-11T01:50:52.578Z,79.19
2023-02-11T01:51:52.540Z,79.19
2023-02-11T01:52:52.517Z,79.19
2023-02-11T01:53:52.520Z,79.29
2023-02-11T01:54:52.500Z,79.36
2023-02-11T01:55:52.481Z,79.19
2023-02-11T01:56:52.473Z,79.05
2023-02-11T01:57:52.461Z,78.83
2023-02-11T01:58:52.478Z,78.73
2023-02-11T01:59:52.444Z,78.63
2023-02-11T02:00:52.434Z,78.63
2023-02-11T02:01:52.468Z,78.63
2023-02-11T02:02:52.413Z,78.52
2023-02-11T02:03:52.443Z,78.63
2023-02-11T02:04:52.424Z,78.83
2023-02-11T02:05:52.708Z,78.94
2023-02-11T02:06:52.377Z,78.94
2023-02-11T02:07:52.353Z,78.94
2023-02-11T02:08:52.359Z,79.05
2023-02-11T02:09:52.345Z,79.05
2023-02-11T02:10:52.358Z,79.15
2023-02-11T02:11:52.329Z,79.15
2023-02-11T02:12:52.323Z,79.15
2023-02-11T02:13:52.294Z,79.15
2023-02-11T02:14:52.291Z,79.25
2023-02-11T02:15:52.716Z,79.25
2023-02-11T02:16:52.495Z,79.25
2023-02-11T02:17:52.259Z,79.25
2023-02-11T02:18:52.246Z,79.25
2023-02-11T02:19:52.234Z,79.25
2023-02-11T02:20:52.227Z,79.36
2023-02-11T02:21:52.231Z,79.39
2023-02-11T02:22:52.234Z,79.46
2023-02-11T02:23:52.192Z,79.50
2023-02-11T02:24:52.188Z,79.46
2023-02-11T02:25:52.380Z,79.46
2023-02-11T02:26:52.170Z,79.50
2023-02-11T02:27:52.149Z,79.46
2023-02-11T02:28:52.187Z,79.46
2023-02-11T02:29:52.132Z,79.36
2023-02-11T02:30:52.345Z,79.36
2023-02-11T02:31:52.152Z,79.36
2023-02-11T02:32:52.107Z,79.36
2023-02-11T02:33:52.092Z,79.46
2023-02-11T02:34:52.114Z,79.36
2023-02-11T02:35:52.163Z,79.36
2023-02-11T02:36:52.065Z,79.46
2023-02-11T02:37:52.061Z,79.46
2023-02-11T02:38:52.048Z,79.36
2023-02-11T02:39:52.038Z,79.36
2023-02-11T02:40:52.054Z,79.36
2023-02-11T02:41:52.022Z,79.36
2023-02-11T02:42:52.003Z,79.46
2023-02-11T02:43:52.000Z,79.57
2023-02-11T02:44:51.984Z,79.67
2023-02-11T02:45:52.347Z,79.67
2023-02-11T02:46:52.151Z,79.57
2023-02-11T02:47:51.962Z,79.67
2023-02-11T02:48:51.943Z,79.67
2023-02-11T02:49:51.939Z,79.67
2023-02-11T02:50:51.923Z,79.67
2023-02-11T02:51:51.946Z,79.67
2023-02-11T02:52:51.904Z,79.77
2023-02-11T02:53:51.938Z,79.67
2023-02-11T02:54:51.890Z,79.67
2023-02-11T02:55:52.141Z,79.67
2023-02-11T02:56:51.903Z,79.77
2023-02-11T02:57:51.865Z,79.77
2023-02-11T02:58:51.846Z,79.88
2023-02-11T02:59:51.835Z,79.88
2023-02-11T03:00:51.843Z,79.88
2023-02-11T03:01:51.826Z,79.88
2023-02-11T03:02:51.845Z,79.77
2023-02-11T03:03:51.863Z,79.77
2023-02-11T03:04:51.781Z,79.77
2023-02-11T03:05:52.317Z,79.77
2023-02-11T03:06:51.768Z,79.77
2023-02-11T03:07:51.766Z,79.67
2023-02-11T03:08:51.781Z,79.57
2023-02-11T03:09:51.736Z,79.57
2023-02-11T03:10:51.724Z,79.53
2023-02-11T03:11:51.719Z,79.32
2023-02-11T03:12:51.710Z,79.43
2023-02-11T03:13:51.699Z,79.43
2023-02-11T03:14:51.720Z,79.46
2023-02-11T03:15:52.103Z,79.53
2023-02-11T03:16:51.663Z,79.67
2023-02-11T03:17:51.663Z,79.63
2023-02-11T03:18:51.639Z,79.53
2023-02-11T03:19:51.642Z,79.53
2023-02-11T03:20:52.040Z,79.43
2023-02-11T03:21:51.616Z,79.43
2023-02-11T03:22:51.602Z,79.53
2023-02-11T03:23:51.592Z,79.63
2023-02-11T03:24:51.580Z,79.74
2023-02-11T03:25:51.877Z,79.84
2023-02-11T03:26:51.586Z,79.84
2023-02-11T03:27:51.790Z,79.84
2023-02-11T03:28:51.545Z,79.94
2023-02-11T03:29:51.551Z,80.05
2023-02-11T03:30:51.590Z,80.05
2023-02-11T03:31:51.642Z,80.05
2023-02-11T03:32:51.503Z,79.94
2023-02-11T03:33:51.522Z,79.94
2023-02-11T03:34:51.481Z,79.94
2023-02-11T03:35:51.751Z,80.05
2023-02-11T03:36:51.460Z,80.05
2023-02-11T03:37:51.458Z,80.16
2023-02-11T03:38:51.478Z,80.16
2023-02-11T03:39:51.441Z,80.26
2023-02-11T03:40:51.422Z,80.26
2023-02-11T03:41:51.417Z,80.36
2023-02-11T03:42:51.412Z,80.51
2023-02-11T03:43:51.405Z,80.61
2023-02-11T03:44:51.412Z,80.61
2023-02-11T03:45:51.701Z,80.71
2023-02-11T03:46:51.367Z,80.71
2023-02-11T03:47:51.355Z,80.82
2023-02-11T03:48:51.341Z,80.82
2023-02-11T03:49:51.337Z,80.82
2023-02-11T03:50:51.364Z,80.82
2023-02-11T03:51:51.321Z,80.88
2023-02-11T03:52:51.303Z,80.88
2023-02-11T03:53:51.297Z,80.99
2023-02-11T03:54:51.280Z,80.99
2023-02-11T03:55:51.704Z,81.09
2023-02-11T03:56:51.283Z,81.09
2023-02-11T03:57:51.252Z,80.99
2023-02-11T03:58:51.241Z,80.99
2023-02-11T03:59:51.233Z,81.09
2023-02-11T04:00:51.260Z,80.78
2023-02-11T04:01:51.218Z,80.78
2023-02-11T04:02:51.266Z,80.78
2023-02-11T04:03:51.191Z,80.78
2023-02-11T04:04:51.298Z,80.88
2023-02-11T04:05:51.404Z,80.99
2023-02-11T04:06:51.157Z,81.09
2023-02-11T04:07:51.180Z,81.20
2023-02-11T04:08:51.133Z,81.30
2023-02-11T04:09:51.133Z,81.30
2023-02-11T04:10:51.151Z,81.30
2023-02-11T04:11:51.120Z,81.30
2023-02-11T04:12:51.111Z,81.20
2023-02-11T04:13:51.088Z,81.30
2023-02-11T04:14:51.077Z,81.30
2023-02-11T04:15:51.423Z,81.30
2023-02-11T04:16:51.084Z,81.30
2023-02-11T04:17:51.056Z,81.30
2023-02-11T04:18:51.036Z,81.30
2023-02-11T04:19:51.035Z,81.20
2023-02-11T04:20:51.024Z,81.30
2023-02-11T04:21:51.022Z,81.30
2023-02-11T04:22:51.408Z,81.30
2023-02-11T04:23:50.990Z,81.30
2023-02-11T04:24:50.974Z,81.09
2023-02-11T04:25:51.404Z,81.09
2023-02-11T04:26:50.956Z,80.99
2023-02-11T04:27:51.000Z,80.99
2023-02-11T04:28:50.953Z,80.99
2023-02-11T04:29:50.951Z,80.99
2023-02-11T04:30:50.961Z,81.09
2023-02-11T04:31:51.019Z,81.20
2023-02-11T04:32:50.894Z,81.30
2023-02-11T04:33:50.889Z,81.41
2023-02-11T04:34:50.906Z,81.41
2023-02-11T04:35:51.205Z,81.51
2023-02-11T04:36:50.860Z,81.62
2023-02-11T04:37:50.847Z,81.65
2023-02-11T04:38:50.826Z,81.76
2023-02-11T04:39:50.860Z,81.86
2023-02-11T04:40:50.811Z,81.86
2023-02-11T04:41:50.807Z,81.82
2023-02-11T04:42:50.786Z,81.86
2023-02-11T04:43:50.785Z,81.86
2023-02-11T04:44:50.768Z,81.86
2023-02-11T04:45:51.258Z,81.82
2023-02-11T04:46:50.752Z,81.86
2023-02-11T04:47:50.745Z,81.96
2023-02-11T04:48:50.738Z,82.07
2023-02-11T04:49:50.741Z,82.17
2023-02-11T04:50:50.708Z,82.17
2023-02-11T04:51:50.741Z,82.17
2023-02-11T04:52:50.694Z,82.28
2023-02-11T04:53:50.696Z,82.28
2023-02-11T04:54:50.679Z,82.38
2023-02-11T04:55:51.295Z,82.48
2023-02-11T04:56:50.649Z,82.59
2023-02-11T04:57:50.684Z,82.59
2023-02-11T04:58:50.633Z,82.70
2023-02-11T04:59:50.624Z,82.80
2023-02-11T05:00:50.648Z,82.90
2023-02-11T05:01:50.606Z,82.90
2023-02-11T05:02:50.588Z,83.01
2023-02-11T05:03:50.641Z,83.01
2023-02-11T05:04:50.577Z,83.11
2023-02-11T05:05:50.937Z,83.22
2023-02-11T05:06:50.595Z,83.22
2023-02-11T05:07:50.554Z,83.11
2023-02-11T05:08:50.530Z,83.11
2023-02-11T05:09:50.545Z,83.01
2023-02-11T05:10:50.541Z,83.01
2023-02-11T05:11:50.505Z,83.01
2023-02-11T05:12:50.484Z,82.90
2023-02-11T05:13:50.486Z,82.87
2023-02-11T05:14:50.472Z,82.90
2023-02-11T05:15:50.856Z,82.76
2023-02-11T05:16:50.511Z,82.76
2023-02-11T05:17:50.456Z,82.76
2023-02-11T05:18:52.571Z,82.76
2023-02-11T05:19:50.427Z,82.76
2023-02-11T05:20:50.411Z,82.90
2023-02-11T05:22:01.621Z,82.97
2023-02-11T05:22:50.401Z,82.97
2023-02-11T05:23:50.400Z,82.87
2023-02-11T05:24:50.395Z,82.87
2023-02-11T05:25:50.662Z,82.87
2023-02-11T05:26:50.368Z,83.01
2023-02-11T05:27:50.379Z,82.97
2023-02-11T05:28:50.350Z,83.01
2023-02-11T05:29:50.324Z,83.01
2023-02-11T05:30:50.340Z,82.97
2023-02-11T05:31:50.304Z,82.97
2023-02-11T05:32:50.285Z,82.97
2023-02-11T05:33:50.299Z,82.97
2023-02-11T05:34:50.268Z,83.07
2023-02-11T05:35:50.533Z,83.07
2023-02-11T05:36:50.259Z,83.07
2023-02-11T05:37:50.241Z,82.97
2023-02-11T05:38:50.552Z,82.87
2023-02-11T05:39:50.219Z,82.87
2023-02-11T05:40:50.205Z,82.87
2023-02-11T05:41:50.200Z,82.76
2023-02-11T05:42:50.185Z,82.87
2023-02-11T05:43:50.180Z,82.76
2023-02-11T05:44:50.763Z,82.76
2023-02-11T05:45:50.743Z,82.76
2023-02-11T05:46:50.146Z,82.76
2023-02-11T05:47:50.140Z,82.76
2023-02-11T05:48:50.132Z,82.76
2023-02-11T05:49:50.127Z,82.76
2023-02-11T05:50:50.127Z,82.65
2023-02-11T05:51:50.097Z,82.62
2023-02-11T05:52:50.089Z,82.62
2023-02-11T05:53:50.075Z,82.62
2023-02-11T05:54:50.068Z,82.62
2023-02-11T05:55:50.429Z,82.62
2023-02-11T05:56:50.085Z,82.65
2023-02-11T05:57:50.037Z,82.76
2023-02-11T05:58:50.035Z,82.76
2023-02-11T05:59:50.008Z,82.82
2023-02-11T06:00:50.016Z,82.87
2023-02-11T06:01:49.994Z,82.87
2023-02-11T06:02:50.079Z,82.87
2023-02-11T06:03:50.070Z,82.87
2023-02-11T06:04:49.971Z,82.97
2023-02-11T06:05:50.300Z,82.97
2023-02-11T06:06:49.950Z,83.07
2023-02-11T06:07:49.962Z,83.07
2023-02-11T06:08:49.928Z,83.07
2023-02-11T06:09:49.903Z,83.07
2023-02-11T06:10:49.900Z,83.07
2023-02-11T06:11:49.881Z,83.07
2023-02-11T06:12:49.881Z,83.07
2023-02-11T06:13:49.907Z,83.04
2023-02-11T06:14:49.861Z,83.07
2023-02-11T06:15:50.347Z,83.14
2023-02-11T06:16:49.841Z,83.18
2023-02-11T06:17:49.832Z,83.04
2023-02-11T06:18:49.827Z,83.04
2023-02-11T06:19:49.832Z,82.93
2023-02-11T06:20:49.796Z,82.93
2023-02-11T06:21:49.784Z,82.93
2023-02-11T06:22:49.777Z,82.82
2023-02-11T06:23:49.766Z,82.62
2023-02-11T06:25:00.805Z,82.72
2023-02-11T06:25:50.256Z,82.72
2023-02-11T06:26:49.737Z,82.72
2023-02-11T06:27:49.722Z,82.82
2023-02-11T06:28:49.718Z,82.82
2023-02-11T06:29:49.702Z,82.72
2023-02-11T06:30:49.872Z,82.62
2023-02-11T06:31:49.833Z,82.62
2023-02-11T06:32:49.830Z,82.51
2023-02-11T06:33:49.672Z,82.51
2023-02-11T06:34:49.658Z,82.51
2023-02-11T06:35:49.940Z,82.51
2023-02-11T06:36:49.637Z,82.51
2023-02-11T06:37:49.653Z,82.62
2023-02-11T06:38:49.647Z,82.51
2023-02-11T06:39:49.603Z,82.62
2023-02-11T06:40:49.803Z,82.62
2023-02-11T06:41:49.586Z,82.62
2023-02-11T06:42:49.583Z,82.62
2023-02-11T06:43:49.564Z,82.62
2023-02-11T06:44:49.961Z,82.62
2023-02-11T06:45:49.836Z,82.72
2023-02-11T06:46:49.561Z,82.72
2023-02-11T06:47:49.527Z,82.72
2023-02-11T06:48:49.516Z,82.51
2023-02-11T06:49:49.507Z,82.51
2023-02-11T06:50:49.521Z,82.51
2023-02-11T06:51:49.493Z,82.41
2023-02-11T06:52:49.507Z,82.31
2023-02-11T06:53:49.470Z,82.20
2023-02-11T06:54:49.461Z,82.20
2023-02-11T06:55:49.845Z,82.31
2023-02-11T06:56:49.466Z,82.41
2023-02-11T06:57:49.425Z,82.51
2023-02-11T06:58:49.420Z,82.62
2023-02-11T06:59:49.410Z,82.62
2023-02-11T07:00:49.396Z,82.62
2023-02-11T07:01:49.439Z,82.62
2023-02-11T07:02:49.445Z,82.51
2023-02-11T07:03:49.365Z,82.51
2023-02-11T07:04:49.359Z,82.41
2023-02-11T07:05:49.748Z,82.37
2023-02-11T07:06:49.336Z,82.31
2023-02-11T07:07:49.337Z,82.20
2023-02-11T07:08:49.346Z,82.31
2023-02-11T07:09:49.306Z,82.51
2023-02-11T07:10:49.296Z,82.51
2023-02-11T07:11:49.311Z,82.51
2023-02-11T07:12:49.272Z,82.51
2023-02-11T07:13:49.259Z,82.51
2023-02-11T07:14:49.288Z,82.41
2023-02-11T07:15:49.700Z,82.41
2023-02-11T07:16:49.234Z,82.41
2023-02-11T07:17:49.226Z,82.37
2023-02-11T07:18:49.213Z,82.27
2023-02-11T07:19:49.201Z,82.27
2023-02-11T07:20:49.216Z,82.37
2023-02-11T07:21:49.183Z,82.37
2023-02-11T07:22:49.173Z,82.37
2023-02-11T07:23:49.161Z,82.37
2023-02-11T07:24:49.162Z,82.48
2023-02-11T07:25:49.593Z,82.48
2023-02-11T07:26:49.176Z,82.48
2023-02-11T07:27:49.120Z,82.37
2023-02-11T07:28:49.114Z,82.27
2023-02-11T07:29:49.119Z,82.06
2023-02-11T07:30:49.132Z,81.96
2023-02-11T07:31:49.150Z,81.85
2023-02-11T07:32:49.090Z,81.85
2023-02-11T07:33:49.093Z,81.81
2023-02-11T07:34:49.119Z,81.71
2023-02-11T07:35:49.438Z,81.60
2023-02-11T07:36:49.048Z,81.75
2023-02-11T07:37:49.034Z,81.85
2023-02-11T07:38:49.035Z,81.85
2023-02-11T07:39:49.030Z,81.71
2023-02-11T07:40:48.991Z,81.71
2023-02-11T07:41:48.986Z,81.60
2023-02-11T07:42:48.980Z,81.71
2023-02-11T07:43:48.969Z,81.60
2023-02-11T07:44:50.549Z,81.60
2023-02-11T07:45:49.573Z,81.60
2023-02-11T07:46:49.022Z,81.50
2023-02-11T07:47:48.922Z,81.60
2023-02-11T07:48:48.923Z,81.60
2023-02-11T07:49:48.905Z,81.71
2023-02-11T07:50:48.903Z,81.60
2023-02-11T07:51:48.911Z,81.40
2023-02-11T07:52:48.879Z,81.19
2023-02-11T07:53:48.889Z,81.19
2023-02-11T07:54:48.857Z,81.19
2023-02-11T07:55:49.243Z,81.19
2023-02-11T07:56:48.840Z,81.09
2023-02-11T07:57:48.861Z,80.98
2023-02-11T07:58:48.840Z,80.88
2023-02-11T07:59:48.804Z,80.74
2023-02-11T08:00:48.853Z,80.63
2023-02-11T08:01:48.809Z,80.53
2023-02-11T08:02:48.781Z,80.43
2023-02-11T08:03:48.786Z,80.43
2023-02-11T08:04:48.807Z,80.43
2023-02-11T08:05:48.974Z,80.53
2023-02-11T08:06:48.745Z,80.43
2023-02-11T08:07:48.720Z,80.53
2023-02-11T08:08:48.723Z,80.63
2023-02-11T08:09:48.727Z,80.84
2023-02-11T08:10:49.013Z,80.74
2023-02-11T08:11:48.679Z,80.74
2023-02-11T08:12:48.674Z,80.77
2023-02-11T08:13:48.658Z,80.98
2023-02-11T08:14:48.658Z,81.09
2023-02-11T08:15:48.859Z,81.19
2023-02-11T08:16:48.694Z,81.09
2023-02-11T08:17:48.624Z,80.98
2023-02-11T08:18:48.618Z,80.94
2023-02-11T08:19:48.602Z,80.84
2023-02-11T08:20:49.008Z,80.74
2023-02-11T08:21:48.612Z,80.63
2023-02-11T08:22:48.579Z,80.32
2023-02-11T08:23:48.554Z,80.43
2023-02-11T08:24:51.371Z,80.22
2023-02-11T08:25:48.535Z,80.11
2023-02-11T08:26:48.533Z,80.01
2023-02-11T08:27:48.547Z,80.01
2023-02-11T08:28:48.511Z,80.01
2023-02-11T08:29:48.499Z,79.97
2023-02-11T08:30:48.680Z,79.97
2023-02-11T08:31:48.536Z,80.18
2023-02-11T08:32:48.464Z,80.18
2023-02-11T08:33:48.490Z,80.08
2023-02-11T08:34:48.455Z,80.08
2023-02-11T08:35:48.430Z,79.97
2023-02-11T08:36:48.451Z,79.97
2023-02-11T08:37:48.413Z,79.97
2023-02-11T08:38:48.411Z,79.87
2023-02-11T08:39:48.413Z,79.76
2023-02-11T08:40:48.638Z,79.66
2023-02-11T08:41:48.381Z,79.66
2023-02-11T08:42:48.369Z,79.55
2023-02-11T08:43:48.350Z,79.62
2023-02-11T08:44:48.358Z,79.52
2023-02-11T08:45:48.523Z,79.52
2023-02-11T08:46:48.364Z,79.31
2023-02-11T08:47:48.320Z,79.00
2023-02-11T08:48:48.310Z,78.89
2023-02-11T08:49:48.286Z,78.69
2023-02-11T08:50:48.285Z,78.44
2023-02-11T08:51:48.297Z,78.34
2023-02-11T08:52:48.268Z,78.23
2023-02-11T08:53:48.261Z,78.23
2023-02-11T08:54:48.266Z,78.13
2023-02-11T08:55:48.461Z,78.03
2023-02-11T08:56:48.222Z,78.13
2023-02-11T08:57:48.248Z,77.92
2023-02-11T08:58:48.227Z,77.72
2023-02-11T08:59:48.189Z,77.58
2023-02-11T09:00:48.340Z,77.58
2023-02-11T09:01:48.242Z,77.26
2023-02-11T09:02:48.167Z,77.16
2023-02-11T09:03:48.559Z,77.16
2023-02-11T09:04:48.151Z,77.26
2023-02-11T09:05:48.133Z,77.06
2023-02-11T09:06:48.121Z,77.06
2023-02-11T09:07:48.112Z,77.06
2023-02-11T09:08:48.099Z,77.06
2023-02-11T09:09:48.115Z,77.16
2023-02-11T09:10:48.137Z,77.37
2023-02-11T09:11:48.068Z,77.16
2023-02-11T09:12:48.060Z,77.06
2023-02-11T09:13:48.049Z,77.02
2023-02-11T09:14:48.049Z,77.16
2023-02-11T09:15:48.050Z,77.02
2023-02-11T09:16:48.137Z,77.12
2023-02-11T09:17:48.004Z,77.12
2023-02-11T09:18:48.000Z,77.12
2023-02-11T09:19:47.990Z,77.23
2023-02-11T09:20:48.050Z,77.12
2023-02-11T09:21:47.976Z,77.23
2023-02-11T09:22:47.963Z,77.37
2023-02-11T09:23:48.124Z,77.33
2023-02-11T09:24:47.958Z,77.33
2023-02-11T09:25:47.951Z,77.33
2023-02-11T09:26:47.959Z,77.26
2023-02-11T09:27:47.917Z,77.58
2023-02-11T09:28:48.016Z,77.78
2023-02-11T09:29:47.905Z,77.89
2023-02-11T09:30:47.989Z,77.99
2023-02-11T09:31:48.039Z,77.78
2023-02-11T09:32:47.888Z,77.99
2023-02-11T09:33:48.005Z,77.99
2023-02-11T09:34:47.837Z,78.09
2023-02-11T09:35:47.826Z,77.89
2023-02-11T09:36:47.814Z,77.78
2023-02-11T09:37:47.845Z,77.75
2023-02-11T09:38:47.873Z,77.75
2023-02-11T09:39:47.788Z,77.75
2023-02-11T09:40:47.832Z,77.89
2023-02-11T09:41:47.764Z,77.99
2023-02-11T09:42:47.770Z,77.95
2023-02-11T09:43:47.790Z,78.06
2023-02-11T09:44:47.743Z,78.16
2023-02-11T09:45:47.754Z,78.27
2023-02-11T09:46:47.717Z,78.27
2023-02-11T09:47:47.700Z,78.68
2023-02-11T09:48:47.700Z,78.06
2023-02-11T09:49:47.713Z,78.06
2023-02-11T09:50:47.693Z,77.95
2023-02-11T09:51:47.661Z,78.06
2023-02-11T09:52:47.655Z,77.95
2023-02-11T09:53:47.644Z,77.95
2023-02-11T09:54:47.639Z,77.95
2023-02-11T09:55:47.649Z,77.95
2023-02-11T09:56:47.614Z,78.06
2023-02-11T09:57:47.614Z,78.06
2023-02-11T09:58:47.603Z,78.06
2023-02-11T09:59:47.581Z,78.03
2023-02-11T10:00:47.609Z,77.92
2023-02-11T10:01:47.677Z,77.82
2023-02-11T10:02:47.570Z,77.72
2023-02-11T10:03:47.539Z,77.72
2023-02-11T10:04:47.532Z,77.72
2023-02-11T10:05:47.523Z,77.92
2023-02-11T10:06:47.755Z,77.72
2023-02-11T10:07:47.504Z,77.82
2023-02-11T10:08:47.491Z,77.82
2023-02-11T10:09:47.483Z,77.82
2023-02-11T10:10:47.477Z,77.92
2023-02-11T10:11:47.462Z,77.82
2023-02-11T10:12:47.478Z,77.72
2023-02-11T10:13:47.444Z,77.82
2023-02-11T10:14:47.436Z,78.03
2023-02-11T10:15:47.541Z,78.23
2023-02-11T10:16:47.410Z,78.44
2023-02-11T10:17:47.407Z,78.34
2023-02-11T10:18:47.424Z,78.34
2023-02-11T10:19:47.384Z,78.44
2023-02-11T10:20:47.369Z,78.55
2023-02-11T10:21:47.365Z,78.65
2023-02-11T10:22:47.348Z,78.75
2023-02-11T10:23:47.342Z,78.72
2023-02-11T10:24:47.347Z,78.51
2023-02-11T10:25:47.335Z,78.61
2023-02-11T10:26:47.310Z,78.72
2023-02-11T10:27:47.301Z,78.82
2023-02-11T10:28:47.297Z,78.82
2023-02-11T10:29:47.279Z,78.72
2023-02-11T10:30:47.366Z,78.61
2023-02-11T10:31:47.355Z,78.51
2023-02-11T10:32:47.280Z,78.51
2023-02-11T10:33:47.245Z,78.51
2023-02-11T10:34:47.226Z,78.61
2023-02-11T10:35:47.235Z,78.51
2023-02-11T10:36:47.209Z,78.41
2023-02-11T10:37:47.206Z,78.51
2023-02-11T10:38:47.200Z,78.61
2023-02-11T10:39:47.197Z,78.72
2023-02-11T10:40:47.165Z,78.92
2023-02-11T10:41:47.156Z,78.92
2023-02-11T10:42:47.143Z,78.92
2023-02-11T10:43:47.167Z,79.03
2023-02-11T10:44:47.120Z,78.92
2023-02-11T10:45:47.115Z,78.92
2023-02-11T10:46:47.203Z,78.92
2023-02-11T10:47:47.095Z,79.03
2023-02-11T10:48:47.092Z,79.03
2023-02-11T10:49:47.098Z,79.03
2023-02-11T10:50:47.062Z,79.03
2023-02-11T10:51:47.057Z,78.92
2023-02-11T10:52:47.044Z,78.82
2023-02-11T10:53:47.038Z,78.82
2023-02-11T10:54:47.066Z,78.82
2023-02-11T10:55:47.015Z,78.92
2023-02-11T10:56:46.998Z,78.82
2023-02-11T10:57:46.996Z,78.72
2023-02-11T10:58:46.985Z,78.72
2023-02-11T10:59:46.975Z,78.58
2023-02-11T11:00:46.978Z,78.58
2023-02-11T11:01:47.049Z,78.58
2023-02-11T11:02:46.935Z,78.47
2023-02-11T11:03:46.940Z,78.47
2023-02-11T11:04:46.951Z,78.58
2023-02-11T11:05:46.916Z,78.58
2023-02-11T11:06:46.916Z,78.58
2023-02-11T11:07:46.894Z,78.58
2023-02-11T11:08:46.887Z,78.58
2023-02-11T11:09:46.872Z,78.37
2023-02-11T11:10:46.882Z,78.37
2023-02-11T11:11:46.854Z,78.47
2023-02-11T11:12:47.240Z,78.37
2023-02-11T11:13:46.832Z,78.37
2023-02-11T11:14:46.817Z,78.37
2023-02-11T11:15:46.905Z,78.47
2023-02-11T11:16:46.796Z,78.37
2023-02-11T11:17:46.797Z,78.37
2023-02-11T11:18:46.807Z,78.37
2023-02-11T11:19:46.770Z,78.27
2023-02-11T11:20:46.753Z,78.23
2023-02-11T11:21:46.757Z,78.16
2023-02-11T11:22:46.739Z,78.12
2023-02-11T11:23:46.733Z,78.23
2023-02-11T11:24:46.871Z,78.44
2023-02-11T11:25:46.716Z,78.33
2023-02-11T11:26:46.709Z,78.44
2023-02-11T11:27:46.696Z,78.64
2023-02-11T11:28:46.679Z,78.85
2023-02-11T11:29:46.670Z,78.96
2023-02-11T11:30:46.762Z,78.96
2023-02-11T11:31:46.675Z,78.96
2023-02-11T11:32:46.635Z,78.96
2023-02-11T11:33:46.630Z,79.06
2023-02-11T11:34:46.609Z,79.27
2023-02-11T11:35:46.610Z,79.37
2023-02-11T11:36:46.606Z,79.47
2023-02-11T11:37:46.583Z,79.47
2023-02-11T11:38:46.568Z,79.99
2023-02-11T11:39:46.563Z,80.09
2023-02-11T11:40:46.545Z,80.09
2023-02-11T11:41:46.539Z,80.09
2023-02-11T11:42:46.565Z,79.88
2023-02-11T11:43:46.518Z,79.95
2023-02-11T11:44:46.507Z,79.95
2023-02-11T11:45:46.502Z,79.95
2023-02-11T11:46:46.553Z,80.16
2023-02-11T11:47:46.474Z,80.16
2023-02-11T11:48:46.498Z,80.16
2023-02-11T11:49:46.457Z,80.26
2023-02-11T11:50:46.443Z,80.40
2023-02-11T11:51:46.444Z,80.61
2023-02-11T11:52:46.423Z,80.51
2023-02-11T11:53:46.421Z,80.40
2023-02-11T11:54:46.435Z,80.40
2023-02-11T11:55:46.397Z,80.30
2023-02-11T11:56:46.378Z,80.26
2023-02-11T11:57:46.375Z,80.26
2023-02-11T11:58:46.361Z,80.36
2023-02-11T11:59:46.353Z,80.36
2023-02-11T12:00:46.372Z,80.47
2023-02-11T12:01:46.382Z,80.36
2023-02-11T12:02:46.403Z,80.61
2023-02-11T12:03:46.312Z,80.47
2023-02-11T12:04:46.299Z,80.47
2023-02-11T12:05:46.323Z,80.47
2023-02-11T12:06:46.315Z,80.47
2023-02-11T12:07:46.273Z,80.47
2023-02-11T12:08:46.257Z,80.57
2023-02-11T12:09:46.253Z,80.68
2023-02-11T12:10:46.265Z,80.78
2023-02-11T12:11:46.243Z,80.78
2023-02-11T12:12:46.982Z,80.78
2023-02-11T12:13:46.225Z,80.88
2023-02-11T12:14:46.196Z,81.20
2023-02-11T12:15:46.190Z,81.30
2023-02-11T12:16:46.218Z,81.20
2023-02-11T12:17:46.172Z,81.30
2023-02-11T12:18:47.562Z,81.30
2023-02-11T12:19:46.150Z,81.30
2023-02-11T12:20:46.145Z,81.30
2023-02-11T12:21:46.135Z,81.30
2023-02-11T12:22:46.116Z,81.09
2023-02-11T12:23:46.109Z,80.88
2023-02-11T12:24:46.122Z,80.99
2023-02-11T12:25:46.095Z,80.99
2023-02-11T12:26:46.072Z,80.88
2023-02-11T12:27:46.070Z,80.68
2023-02-11T12:28:46.057Z,80.57
2023-02-11T12:29:46.047Z,80.33
2023-02-11T12:30:46.089Z,80.12
2023-02-11T12:31:46.059Z,80.02
2023-02-11T12:32:46.013Z,79.91
2023-02-11T12:33:46.013Z,79.91
2023-02-11T12:34:45.999Z,79.91
2023-02-11T12:35:45.988Z,79.81
2023-02-11T12:36:46.028Z,79.81
2023-02-11T12:37:46.003Z,79.71
2023-02-11T12:38:45.958Z,79.60
2023-02-11T12:39:45.950Z,79.60
2023-02-11T12:40:45.936Z,79.60
2023-02-11T12:41:45.925Z,79.71
2023-02-11T12:42:46.109Z,79.81
2023-02-11T12:43:45.905Z,79.81
2023-02-11T12:44:45.890Z,79.81
2023-02-11T12:45:45.928Z,79.91
2023-02-11T12:46:45.866Z,80.02
2023-02-11T12:47:45.873Z,80.02
2023-02-11T12:48:45.884Z,79.91
2023-02-11T12:49:45.850Z,79.91
2023-02-11T12:50:45.829Z,79.88
2023-02-11T12:51:45.829Z,79.88
2023-02-11T12:52:45.826Z,79.77